Time;durP1;ratioP1;P1;durP2;ratioP2;P2;SDS_P1;SDS_P2;PMS_P1;PMS_P2;Temp;Humidity;BMP_temperature;BMP_pressure;BME280_temperature;BME280_humidity;BME280_pressure;Samples;Min_cycle;Max_cycle;Signal;HPM_P1;HPM_P2
2022/08/13 00:01:33;;;;;;;5.63;3.92;;;20.80;99.90;;;;;;5042148;28;20128;-53
2022/08/13 00:04:00;;;;;;;4.45;3.45;;;20.70;99.90;;;;;;5041810;28;20063;-53
2022/08/13 00:09:06;;;;;;;4.88;3.65;;;20.50;99.90;;;;;;5041310;28;20057;-53
2022/08/13 00:14:17;;;;;;;5.90;3.58;;;20.40;99.90;;;;;;5041534;28;20053;-53
2022/08/13 00:16:43;;;;;;;6.32;3.60;;;20.30;99.90;;;;;;5042027;28;20064;-53
2022/08/13 00:19:08;;;;;;;8.48;3.88;;;20.30;99.90;;;;;;5042170;28;20068;-54
2022/08/13 00:21:34;;;;;;;7.82;3.78;;;20.30;99.90;;;;;;5041685;28;20488;-52
2022/08/13 00:24:00;;;;;;;5.10;4.10;;;20.30;99.90;;;;;;5041509;28;20044;-53
2022/08/13 00:26:27;;;;;;;5.18;3.90;;;20.40;99.90;;;;;;5042920;28;20269;-50
2022/08/13 00:28:55;;;;;;;4.47;3.70;;;20.40;99.90;;;;;;5045928;28;20056;-53
2022/08/13 00:31:22;;;;;;;6.13;3.88;;;20.40;99.90;;;;;;5045491;28;20048;-52
2022/08/13 00:33:48;;;;;;;6.40;4.35;;;20.40;99.90;;;;;;5044575;28;20045;-53
2022/08/13 00:36:15;;;;;;;7.18;4.10;;;20.40;99.90;;;;;;5045802;28;20457;-53
2022/08/13 00:38:44;;;;;;;5.32;3.92;;;20.40;99.90;;;;;;5045037;28;20044;-53
2022/08/13 00:41:37;;;;;;;6.97;3.92;;;20.30;99.90;;;;;;5045471;28;20041;-54
2022/08/13 00:43:58;;;;;;;9.35;4.20;;;20.40;99.90;;;;;;5045348;28;20053;-52
2022/08/13 00:46:24;;;;;;;8.75;4.00;;;20.30;99.90;;;;;;5044316;28;20045;-53
2022/08/13 00:48:49;;;;;;;7.20;3.95;;;20.20;99.90;;;;;;5045651;28;20063;-53
2022/08/13 00:51:19;;;;;;;6.18;4.10;;;20.30;99.90;;;;;;5044981;28;20060;-52
2022/08/13 00:53:44;;;;;;;5.28;4.20;;;20.30;99.90;;;;;;5044461;28;20072;-53
2022/08/13 00:56:11;;;;;;;8.23;4.32;;;20.20;99.90;;;;;;5044126;28;20618;-52
2022/08/13 00:58:39;;;;;;;6.03;4.25;;;20.20;99.90;;;;;;5045644;28;20043;-53
2022/08/13 01:01:06;;;;;;;8.43;4.10;;;20.10;99.90;;;;;;5055700;23;20071;-56
2022/08/13 01:03:35;;;;;;;8.70;4.75;;;20.10;99.90;;;;;;4973033;28;20059;-53
2022/08/13 01:06:02;;;;;;;8.85;4.35;;;20.10;99.90;;;;;;4965398;28;20446;-53
2022/08/13 01:08:34;;;;;;;6.60;3.85;;;20.00;99.90;;;;;;4977194;28;20045;-52
2022/08/13 01:11:12;;;;;;;6.00;4.15;;;20.00;99.90;;;;;;4981384;28;20054;-53
2022/08/13 01:13:40;;;;;;;8.52;4.95;;;19.90;99.90;;;;;;4982594;28;20051;-54
2022/08/13 01:16:13;;;;;;;6.38;4.30;;;19.90;99.90;;;;;;4997276;28;20046;-56
2022/08/13 01:18:42;;;;;;;7.05;4.10;;;19.80;99.90;;;;;;4982550;28;20499;-54
2022/08/13 01:21:15;;;;;;;5.40;4.38;;;19.80;99.90;;;;;;4982419;28;20058;-53
2022/08/13 01:23:45;;;;;;;5.65;4.60;;;19.80;99.90;;;;;;4981051;28;20124;-54
2022/08/13 01:26:13;;;;;;;6.72;4.65;;;19.60;99.90;;;;;;4982690;28;20180;-54
2022/08/13 01:28:40;;;;;;;5.60;4.40;;;19.60;99.90;;;;;;4982427;28;20047;-54
2022/08/13 01:31:06;;;;;;;7.35;4.40;;;19.50;99.90;;;;;;4981120;28;20070;-53
2022/08/13 01:33:36;;;;;;;6.10;4.00;;;19.40;99.90;;;;;;4982041;28;20429;-53
2022/08/13 01:36:06;;;;;;;6.28;4.85;;;19.50;99.90;;;;;;4982607;28;20057;-54
2022/08/13 01:38:34;;;;;;;6.63;4.40;;;19.40;99.90;;;;;;4979915;28;20046;-53
2022/08/13 01:41:02;;;;;;;8.48;4.55;;;19.50;99.90;;;;;;4981769;28;20061;-54
2022/08/13 01:43:30;;;;;;;7.35;4.40;;;19.50;99.90;;;;;;4981878;28;20054;-53
2022/08/13 01:46:00;;;;;;;8.27;4.30;;;19.50;99.90;;;;;;4981721;28;20084;-55
2022/08/13 01:51:23;;;;;;;6.95;4.20;;;19.50;99.90;;;;;;4981925;28;20051;-54
2022/08/13 01:53:52;;;;;;;8.27;4.35;;;19.50;99.90;;;;;;4980713;28;20085;-54
2022/08/13 01:56:21;;;;;;;6.15;4.07;;;19.50;99.90;;;;;;4980488;28;20078;-55
2022/08/13 01:58:53;;;;;;;6.22;4.25;;;19.40;99.90;;;;;;4982198;28;20107;-54
2022/08/13 02:01:25;;;;;;;6.18;4.18;;;19.40;99.90;;;;;;4995957;28;20125;-56
2022/08/13 02:03:52;;;;;;;8.55;3.92;;;19.30;99.90;;;;;;4982100;28;20386;-54
2022/08/13 02:06:29;;;;;;;7.03;4.10;;;19.30;99.90;;;;;;4974207;28;20058;-52
2022/08/13 02:09:02;;;;;;;7.97;3.90;;;19.30;99.90;;;;;;4967624;28;20624;-53
2022/08/13 02:11:32;;;;;;;7.25;3.80;;;19.30;99.90;;;;;;4962238;28;20070;-55
2022/08/13 02:13:59;;;;;;;5.63;4.00;;;19.30;99.90;;;;;;4962438;28;20142;-53
2022/08/13 02:16:29;;;;;;;6.50;3.63;;;19.20;99.90;;;;;;4961555;28;20065;-55
2022/08/13 02:18:55;;;;;;;5.05;3.78;;;19.20;99.90;;;;;;4962281;28;20457;-54
2022/08/13 02:21:21;;;;;;;7.53;4.32;;;19.20;99.90;;;;;;4961557;28;20043;-54
2022/08/13 02:23:58;;;;;;;5.03;3.88;;;19.20;99.90;;;;;;4961548;28;20065;-53
2022/08/13 02:26:24;;;;;;;5.63;3.95;;;19.20;99.90;;;;;;4961929;28;20046;-54
2022/08/13 02:28:52;;;;;;;8.35;4.18;;;19.10;99.90;;;;;;4962157;28;20046;-53
2022/08/13 02:31:18;;;;;;;6.60;3.97;;;19.10;99.90;;;;;;4961940;28;20066;-54
2022/08/13 02:33:44;;;;;;;5.13;4.13;;;19.00;99.90;;;;;;4961196;28;20042;-53
2022/08/13 02:36:10;;;;;;;8.00;4.82;;;19.00;99.90;;;;;;4961878;28;20102;-53
2022/08/13 02:38:42;;;;;;;6.75;5.00;;;19.00;99.90;;;;;;4961431;28;20047;-54
2022/08/13 02:43:53;;;;;;;7.90;4.70;;;18.70;99.90;;;;;;4961675;28;20050;-56
2022/08/13 02:46:21;;;;;;;8.50;4.88;;;18.70;99.90;;;;;;4961531;28;20112;-55
2022/08/13 02:48:48;;;;;;;5.95;5.10;;;18.70;99.90;;;;;;4960847;28;20050;-54
2022/08/13 02:51:14;;;;;;;6.85;4.60;;;18.70;99.90;;;;;;4961871;28;20050;-55
2022/08/13 02:53:41;;;;;;;5.50;4.57;;;18.80;99.90;;;;;;4960621;28;20686;-54
2022/08/13 02:56:08;;;;;;;6.93;4.55;;;18.80;99.90;;;;;;4976551;28;20054;-58
2022/08/13 02:58:36;;;;;;;7.20;4.38;;;18.70;99.90;;;;;;4961664;28;20058;-54
2022/08/13 03:01:02;;;;;;;6.72;4.55;;;18.80;99.90;;;;;;4976893;28;20414;-54
2022/08/13 03:03:31;;;;;;;5.55;4.30;;;18.80;99.90;;;;;;4960905;28;20094;-55
2022/08/13 03:06:00;;;;;;;6.18;4.13;;;18.80;99.90;;;;;;4963303;28;20065;-56
2022/08/13 03:08:29;;;;;;;6.75;4.50;;;18.80;99.90;;;;;;4969016;28;20165;-54
2022/08/13 03:10:55;;;;;;;8.50;4.20;;;18.80;99.90;;;;;;4976554;28;20488;-52
2022/08/13 03:13:29;;;;;;;9.27;4.40;;;18.70;99.90;;;;;;4961471;28;20080;-55
2022/08/13 03:15:57;;;;;;;8.85;4.45;;;18.70;99.90;;;;;;4961505;28;20078;-54
2022/08/13 03:18:24;;;;;;;7.50;4.03;;;18.70;99.90;;;;;;4961373;28;20042;-54
2022/08/13 03:20:50;;;;;;;9.07;4.43;;;18.70;99.90;;;;;;4961341;28;20121;-54
2022/08/13 03:23:17;;;;;;;8.43;5.00;;;18.70;99.90;;;;;;4959838;28;20100;-54
2022/08/13 03:25:43;;;;;;;7.00;4.50;;;18.60;99.90;;;;;;4976093;28;20082;-55
2022/08/13 03:28:09;;;;;;;6.78;4.15;;;18.60;99.90;;;;;;4960075;28;20051;-55
2022/08/13 03:30:35;;;;;;;7.20;4.63;;;18.60;99.90;;;;;;4961614;28;20042;-54
2022/08/13 03:33:06;;;;;;;7.00;4.47;;;18.60;99.90;;;;;;4961421;28;20409;-54
2022/08/13 03:35:33;;;;;;;5.93;4.43;;;18.50;99.90;;;;;;4961303;28;20064;-54
2022/08/13 03:37:58;;;;;;;6.75;5.15;;;18.50;99.90;;;;;;4975795;28;20401;-55
2022/08/13 03:41:00;;;;;;;7.57;5.18;;;18.40;99.90;;;;;;4961121;28;20051;-55
2022/08/13 03:43:12;;;;;;;5.90;5.00;;;18.30;99.90;;;;;;4961003;28;20331;-55
2022/08/13 03:45:38;;;;;;;7.00;4.60;;;18.20;99.90;;;;;;4961273;28;20188;-56
2022/08/13 03:48:04;;;;;;;8.18;4.55;;;18.20;99.90;;;;;;4961168;28;20508;-55
2022/08/13 03:50:29;;;;;;;5.80;4.80;;;18.20;99.90;;;;;;4961214;28;20046;-54
2022/08/13 03:53:04;;;;;;;8.38;4.97;;;18.20;99.90;;;;;;4960012;28;20043;-54
2022/08/13 03:55:33;;;;;;;7.28;4.85;;;18.10;99.90;;;;;;4961256;28;20058;-55
2022/08/13 03:58:00;;;;;;;7.30;5.80;;;18.10;99.90;;;;;;4960946;28;20073;-53
2022/08/13 04:00:28;;;;;;;7.55;4.97;;;18.00;99.90;;;;;;4960738;28;20158;-54
2022/08/13 04:02:54;;;;;;;8.18;5.32;;;18.00;99.90;;;;;;4963176;28;20192;-55
2022/08/13 04:05:20;;;;;;;7.15;5.25;;;17.90;99.90;;;;;;4964572;28;20129;-55
2022/08/13 04:07:50;;;;;;;6.97;5.75;;;17.90;99.90;;;;;;4974895;28;20042;-52
2022/08/13 04:10:17;;;;;;;6.22;5.60;;;17.90;99.90;;;;;;4963360;28;20101;-56
2022/08/13 04:12:43;;;;;;;12.02;7.70;;;17.90;99.90;;;;;;4978372;28;20054;-53
2022/08/13 04:15:09;;;;;;;7.32;6.07;;;17.90;99.90;;;;;;4963912;28;20050;-54
2022/08/13 04:17:36;;;;;;;9.38;5.82;;;17.90;99.90;;;;;;4964301;28;20053;-54
2022/08/13 04:20:07;;;;;;;8.85;6.15;;;17.90;99.90;;;;;;4964102;28;20049;-54
2022/08/13 04:22:34;;;;;;;9.07;5.60;;;17.90;99.90;;;;;;4963987;28;20042;-54
2022/08/13 04:25:00;;;;;;;8.93;6.05;;;18.00;99.90;;;;;;4963170;28;20053;-53
2022/08/13 04:27:26;;;;;;;11.27;6.43;;;17.90;99.90;;;;;;4963681;28;20122;-53
2022/08/13 04:29:55;;;;;;;8.73;5.63;;;18.00;99.90;;;;;;4963309;28;20125;-54
2022/08/13 04:32:23;;;;;;;11.90;6.00;;;18.00;99.90;;;;;;4978786;28;20135;-55
2022/08/13 04:34:48;;;;;;;7.63;5.60;;;18.00;99.90;;;;;;4963345;28;20042;-55
2022/08/13 04:37:14;;;;;;;8.18;5.35;;;18.00;99.90;;;;;;4962355;28;20057;-54
2022/08/13 04:39:40;;;;;;;8.35;5.97;;;18.00;99.90;;;;;;4962876;28;20062;-54
2022/08/13 04:42:07;;;;;;;8.07;5.88;;;18.00;99.90;;;;;;4964145;28;20465;-54
2022/08/13 04:44:34;;;;;;;9.10;5.47;;;18.10;99.90;;;;;;4964038;28;20057;-55
2022/08/13 04:46:59;;;;;;;9.50;5.80;;;18.10;99.90;;;;;;4962662;28;20503;-54
2022/08/13 04:49:25;;;;;;;6.63;5.93;;;18.10;99.90;;;;;;4963188;28;20082;-54
2022/08/13 04:51:51;;;;;;;6.68;5.22;;;18.30;99.90;;;;;;4963860;28;20240;-53
2022/08/13 04:54:19;;;;;;;7.75;5.22;;;18.20;99.90;;;;;;4963016;28;20057;-56
2022/08/13 04:56:45;;;;;;;8.18;5.50;;;18.30;99.90;;;;;;4963820;28;20054;-53
2022/08/13 04:59:12;;;;;;;6.60;5.05;;;18.30;99.90;;;;;;4963602;28;20557;-54
2022/08/13 05:01:38;;;;;;;8.38;5.22;;;18.40;99.90;;;;;;4962636;28;20066;-56
2022/08/13 05:04:05;;;;;;;7.35;4.85;;;18.50;99.90;;;;;;4964005;28;20408;-54
2022/08/13 05:06:31;;;;;;;6.43;5.43;;;19.00;99.90;;;;;;4967402;28;20123;-55
2022/08/13 05:08:58;;;;;;;8.05;5.28;;;19.60;99.90;;;;;;4967668;28;20269;-53
2022/08/13 05:11:25;;;;;;;6.40;5.10;;;20.20;99.90;;;;;;4962722;28;20039;-54
2022/08/13 05:13:50;;;;;;;6.03;5.18;;;20.80;99.90;;;;;;4963452;28;20562;-53
2022/08/13 05:16:17;;;;;;;9.57;4.60;;;21.20;99.90;;;;;;4963041;28;20042;-58
2022/08/13 05:18:50;;;;;;;8.73;4.60;;;21.60;99.90;;;;;;4963480;28;20097;-53
2022/08/13 05:21:16;;;;;;;10.00;4.60;;;21.90;99.90;;;;;;4962807;28;20047;-54
2022/08/13 05:23:42;;;;;;;7.80;4.65;;;22.20;99.90;;;;;;4960390;28;20093;-54
2022/08/13 05:26:10;;;;;;;8.10;4.55;;;22.60;99.90;;;;;;4963310;28;20070;-57
2022/08/13 05:28:37;;;;;;;8.02;4.63;;;22.80;99.90;;;;;;4963236;28;20047;-52
2022/08/13 05:31:03;;;;;;;6.10;4.30;;;22.50;99.90;;;;;;4963211;28;20051;-54
2022/08/13 05:33:30;;;;;;;8.35;4.60;;;22.70;99.90;;;;;;4962532;28;20463;-54
2022/08/13 05:36:01;;;;;;;9.50;4.82;;;23.00;99.90;;;;;;4963225;28;20065;-54
2022/08/13 05:38:28;;;;;;;7.72;4.75;;;23.30;99.90;;;;;;4962352;28;20043;-54
2022/08/13 05:40:57;;;;;;;7.10;4.72;;;23.50;99.90;;;;;;4962900;28;20089;-54
2022/08/13 05:43:25;;;;;;;9.18;4.88;;;23.60;99.90;;;;;;4962024;28;20050;-55
2022/08/13 05:46:00;;;;;;;10.38;4.78;;;23.80;99.90;;;;;;4962814;28;20042;-55
2022/08/13 05:48:25;;;;;;;;;;;24.00;99.90;;;;;;4961758;28;20054;-55
2022/08/13 05:50:51;;;;;;;10.13;4.30;;;23.60;99.90;;;;;;4962777;28;20127;-55
2022/08/13 05:53:17;;;;;;;8.68;4.22;;;24.00;99.90;;;;;;4961922;28;20545;-55
2022/08/13 05:55:42;;;;;;;8.02;4.03;;;23.50;99.90;;;;;;4962605;28;20403;-54
2022/08/13 05:58:10;;;;;;;5.75;3.60;;;23.90;99.90;;;;;;4962322;28;20039;-54
2022/08/13 06:03:27;;;;;;;6.63;4.13;;;24.20;99.90;;;;;;4962293;28;20054;-54
2022/08/13 06:05:58;;;;;;;5.88;4.00;;;24.50;99.90;;;;;;4965088;28;20102;-52
2022/08/13 06:08:29;;;;;;;7.22;4.20;;;24.60;99.90;;;;;;4969965;28;20051;-52
2022/08/13 06:10:59;;;;;;;7.10;3.95;;;24.60;99.90;;;;;;4962325;28;20042;-54
2022/08/13 06:13:26;;;;;;;5.68;4.03;;;24.70;99.90;;;;;;4962446;28;20095;-56
2022/08/13 06:15:58;;;;;;;9.20;4.00;;;24.60;99.90;;;;;;4962843;28;20051;-54
2022/08/13 06:18:32;;;;;;;8.00;3.80;;;24.80;99.90;;;;;;4961804;28;20599;-54
2022/08/13 06:21:01;;;;;;;6.03;3.60;;;25.30;99.90;;;;;;4962204;28;20042;-54
2022/08/13 06:23:30;;;;;;;5.47;3.65;;;25.20;99.90;;;;;;4960974;28;20058;-54
2022/08/13 06:25:58;;;;;;;7.22;3.63;;;25.10;99.90;;;;;;4962278;28;20046;-53
2022/08/13 06:28:26;;;;;;;6.95;3.97;;;25.50;99.90;;;;;;4961632;28;20043;-53
2022/08/13 06:30:58;;;;;;;6.25;3.90;;;25.50;99.90;;;;;;4962289;28;20070;-53
2022/08/13 06:33:26;;;;;;;8.02;3.95;;;25.90;99.90;;;;;;4976396;28;20103;-53
2022/08/13 06:36:12;;;;;;;8.23;3.88;;;26.10;99.90;;;;;;4961515;28;20138;-54
2022/08/13 06:38:48;;;;;;;6.47;3.30;;;26.40;99.90;;;;;;4960893;28;20626;-54
2022/08/13 06:41:15;;;;;;;7.25;4.22;;;25.80;99.90;;;;;;4961229;28;20453;-58
2022/08/13 06:43:50;;;;;;;7.47;4.50;;;26.00;99.90;;;;;;4961028;28;20408;-57
2022/08/13 06:46:20;;;;;;;7.30;3.83;;;26.30;99.90;;;;;;4961159;28;20047;-60
2022/08/13 06:48:46;;;;;;;6.50;3.60;;;26.50;99.90;;;;;;4961712;28;20412;-58
2022/08/13 06:51:13;;;;;;;7.65;3.72;;;26.60;99.90;;;;;;4959979;28;20123;-57
2022/08/13 06:53:44;;;;;;;9.20;3.67;;;26.70;99.90;;;;;;4958131;28;20047;-57
2022/08/13 06:56:12;;;;;;;5.07;3.25;;;26.70;99.90;;;;;;4961179;28;20128;-58
2022/08/13 06:58:39;;;;;;;6.40;3.70;;;26.70;99.90;;;;;;4960843;28;20047;-58
2022/08/13 07:01:05;;;;;;;7.07;3.78;;;26.60;99.90;;;;;;4961671;28;20054;-58
2022/08/13 07:03:33;;;;;;;6.65;3.08;;;26.50;99.90;;;;;;4960571;28;20543;-58
2022/08/13 07:06:00;;;;;;;10.77;3.10;;;26.90;99.90;;;;;;4963659;28;20050;-57
2022/08/13 07:08:30;;;;;;;7.95;3.08;;;26.70;99.90;;;;;;4968538;28;20401;-58
2022/08/13 07:13:46;;;;;;;5.13;3.08;;;27.60;99.90;;;;;;4961679;28;20094;-53
2022/08/13 07:16:16;;;;;;;8.85;3.10;;;27.80;99.90;;;;;;4961223;28;20745;-54
2022/08/13 07:18:46;;;;;;;6.55;3.33;;;28.10;99.90;;;;;;4976301;28;20045;-53
2022/08/13 07:21:14;;;;;;;4.63;2.55;;;28.10;99.90;;;;;;4960606;28;20127;-54
2022/08/13 07:23:41;;;;;;;5.80;2.40;;;27.80;99.90;;;;;;4960688;28;20058;-53
2022/08/13 07:26:08;;;;;;;5.85;2.30;;;28.10;99.90;;;;;;4961692;28;20122;-54
2022/08/13 07:28:34;;;;;;;5.10;2.63;;;28.20;99.90;;;;;;4976626;28;20057;-54
2022/08/13 07:31:05;;;;;;;5.78;2.33;;;28.20;99.90;;;;;;4960837;28;20055;-54
2022/08/13 07:33:34;;;;;;;8.10;2.30;;;28.40;99.90;;;;;;4961216;28;20050;-53
2022/08/13 07:36:06;;;;;;;5.22;2.40;;;28.70;99.90;;;;;;4975302;28;20402;-52
2022/08/13 07:38:33;;;;;;;5.82;2.40;;;28.50;99.90;;;;;;4960534;28;20051;-53
2022/08/13 07:41:01;;;;;;;11.75;2.42;;;28.60;99.90;;;;;;4960942;28;20104;-54
2022/08/13 07:43:29;;;;;;;5.32;2.15;;;28.00;99.90;;;;;;4961266;28;20125;-53
2022/08/13 07:46:05;;;;;;;9.80;2.70;;;27.90;99.90;;;;;;4961444;28;20053;-54
2022/08/13 07:48:32;;;;;;;3.08;1.90;;;27.80;99.90;;;;;;4959407;28;20035;-53
2022/08/13 07:51:03;;;;;;;4.43;2.90;;;27.90;99.90;;;;;;4961543;28;21294;-53
2022/08/13 07:53:29;;;;;;;6.55;2.80;;;28.50;99.90;;;;;;4960140;28;20127;-46
2022/08/13 07:55:56;;;;;;;6.78;2.60;;;28.80;99.90;;;;;;4960980;28;20038;-54
2022/08/13 07:58:28;;;;;;;6.05;2.80;;;28.60;99.90;;;;;;4943572;28;20434;-54
2022/08/13 08:00:57;;;;;;;4.80;2.58;;;28.90;99.90;;;;;;4959435;28;20047;-54
2022/08/13 08:03:35;;;;;;;8.75;2.53;;;28.30;99.90;;;;;;4960574;28;20181;-53
2022/08/13 08:06:03;;;;;;;5.50;2.97;;;28.20;99.90;;;;;;4950041;28;20076;-54
2022/08/13 08:08:33;;;;;;;5.38;3.47;;;28.70;99.90;;;;;;4967988;28;20051;-53
2022/08/13 08:11:00;;;;;;;6.28;2.78;;;28.90;99.90;;;;;;4960714;28;20082;-54
2022/08/13 08:13:26;;;;;;;3.92;2.70;;;29.30;99.90;;;;;;4975629;28;20047;-55
2022/08/13 08:15:52;;;;;;;8.93;2.90;;;29.20;99.90;;;;;;4961110;28;20103;-53
2022/08/13 08:18:17;;;;;;;3.97;1.95;;;29.00;99.90;;;;;;4960310;28;20666;-53
2022/08/13 08:20:44;;;;;;;5.18;2.30;;;28.80;99.90;;;;;;4959639;28;20072;-52
2022/08/13 08:23:11;;;;;;;3.35;1.90;;;29.10;99.90;;;;;;4959751;28;20138;-51
2022/08/13 08:25:41;;;;;;;4.63;1.80;;;29.00;99.90;;;;;;4960633;28;20047;-52
2022/08/13 08:28:09;;;;;;;2.97;2.00;;;28.50;99.90;;;;;;4959907;28;20238;-50
2022/08/13 08:30:37;;;;;;;5.10;1.95;;;28.10;99.90;;;;;;4961025;28;20046;-52
2022/08/13 08:33:04;;;;;;;4.65;1.60;;;28.40;99.90;;;;;;4961218;28;20123;-52
2022/08/13 08:35:30;;;;;;;6.32;1.70;;;28.70;99.90;;;;;;4960405;28;20043;-53
2022/08/13 08:43:41;;;;;;;4.03;1.60;;;29.00;99.90;;;;;;4960443;28;20050;-50
2022/08/13 08:46:08;;;;;;;4.55;1.65;;;28.10;99.60;;;;;;4975584;28;20092;-50
2022/08/13 08:48:36;;;;;;;3.08;1.67;;;28.80;99.90;;;;;;4963084;28;20396;-52
2022/08/13 08:51:02;;;;;;;3.95;1.55;;;29.00;99.90;;;;;;4963670;28;20043;-51
2022/08/13 08:53:28;;;;;;;3.85;1.65;;;29.30;99.90;;;;;;4962424;28;20501;-52
2022/08/13 08:55:55;;;;;;;4.82;1.50;;;29.20;99.30;;;;;;4964005;28;20041;-52
2022/08/13 08:58:22;;;;;;;2.35;1.50;;;29.10;99.40;;;;;;4963521;28;20088;-51
2022/08/13 09:00:49;;;;;;;4.63;1.63;;;29.60;99.70;;;;;;4963582;28;20035;-53
2022/08/13 09:03:18;;;;;;;5.70;1.40;;;29.70;99.70;;;;;;4963139;28;20051;-54
2022/08/13 09:05:46;;;;;;;4.53;1.30;;;29.80;99.50;;;;;;4966328;28;20043;-52
2022/08/13 09:08:18;;;;;;;4.20;1.52;;;29.60;99.00;;;;;;4971451;28;20043;-53
2022/08/13 09:10:52;;;;;;;4.35;1.50;;;29.70;98.40;;;;;;4978533;28;20703;-52
2022/08/13 09:13:21;;;;;;;2.55;1.58;;;29.80;98.40;;;;;;4963023;28;20082;-53
2022/08/13 09:15:48;;;;;;;3.60;1.42;;;29.70;98.10;;;;;;4963459;28;20049;-52
2022/08/13 09:18:18;;;;;;;3.22;1.23;;;30.00;98.50;;;;;;4963565;28;20043;-53
2022/08/13 09:20:44;;;;;;;2.35;1.67;;;30.10;98.50;;;;;;4963474;28;20057;-54
2022/08/13 09:23:13;;;;;;;4.50;1.60;;;30.50;98.60;;;;;;4961798;28;20444;-53
2022/08/13 09:25:42;;;;;;;2.65;1.50;;;30.20;97.40;;;;;;4963458;28;20046;-53
2022/08/13 09:28:08;;;;;;;2.50;1.50;;;30.40;97.90;;;;;;4963069;28;20050;-53
2022/08/13 09:30:35;;;;;;;2.25;1.50;;;30.50;98.00;;;;;;4978286;28;20035;-53
2022/08/13 09:33:02;;;;;;;3.10;1.40;;;30.70;97.70;;;;;;4962587;28;20415;-54
2022/08/13 09:35:29;;;;;;;1.88;1.40;;;30.40;97.30;;;;;;4963014;28;20085;-54
2022/08/13 09:37:57;;;;;;;3.63;1.65;;;30.40;97.20;;;;;;4962077;28;20043;-52
2022/08/13 09:40:27;;;;;;;3.97;1.42;;;30.90;97.20;;;;;;4962583;28;20088;-49
2022/08/13 09:43:02;;;;;;;3.38;1.52;;;31.20;97.10;;;;;;4962520;28;20050;-55
2022/08/13 09:45:29;;;;;;;4.35;1.50;;;31.20;96.90;;;;;;4962409;28;20497;-54
2022/08/13 09:47:56;;;;;;;3.35;1.40;;;31.50;97.20;;;;;;4977554;28;20055;-51
2022/08/13 09:50:24;;;;;;;3.30;1.60;;;31.40;96.80;;;;;;4962401;28;20401;-52
2022/08/13 09:52:52;;;;;;;5.15;2.08;;;31.20;95.90;;;;;;4961583;28;20510;-56
2022/08/13 09:55:21;;;;;;;2.70;1.38;;;31.00;95.80;;;;;;4962321;28;20047;-58
2022/08/13 09:57:52;;;;;;;3.03;1.40;;;31.20;96.30;;;;;;4960819;28;20057;-50
2022/08/13 10:00:22;;;;;;;3.13;1.48;;;31.50;96.50;;;;;;4960465;28;20122;-52
2022/08/13 10:02:57;;;;;;;3.95;1.65;;;32.00;96.30;;;;;;4962259;28;20073;-53
2022/08/13 10:05:32;;;;;;;3.50;1.60;;;31.80;96.30;;;;;;4962232;28;20045;-52
2022/08/13 10:07:59;;;;;;;5.07;1.50;;;32.40;96.50;;;;;;4969544;28;20051;-53
2022/08/13 10:10:25;;;;;;;2.83;1.45;;;32.60;96.00;;;;;;4981282;28;20038;-54
2022/08/13 10:12:52;;;;;;;3.13;1.50;;;31.80;95.10;;;;;;4981871;28;20092;-53
2022/08/13 10:15:18;;;;;;;2.92;1.50;;;32.10;95.00;;;;;;4958389;28;20043;-51
2022/08/13 10:17:55;;;;;;;3.17;1.50;;;31.20;95.00;;;;;;4956239;28;20500;-53
2022/08/13 10:20:29;;;;;;;2.47;1.30;;;31.90;96.00;;;;;;4959414;28;20489;-53
2022/08/13 10:22:55;;;;;;;;;;;32.20;95.70;;;;;;4961549;28;20423;-53
2022/08/13 10:25:22;;;;;;;4.97;1.40;;;32.30;95.00;;;;;;4961942;28;20366;-52
2022/08/13 10:27:48;;;;;;;1.88;1.50;;;32.50;95.60;;;;;;4962274;28;20432;-52
2022/08/13 10:30:14;;;;;;;3.22;1.67;;;32.40;94.80;;;;;;4960200;28;20051;-54
2022/08/13 10:32:40;;;;;;;3.20;1.55;;;32.70;95.40;;;;;;4962131;28;20074;-50
2022/08/13 10:35:07;;;;;;;2.58;1.50;;;32.60;94.90;;;;;;4962077;28;20408;-55
2022/08/13 10:37:34;;;;;;;2.80;1.50;;;32.90;95.00;;;;;;4961754;28;20086;-50
2022/08/13 10:40:00;;;;;;;2.70;1.27;;;33.00;95.20;;;;;;4962565;28;20050;-52
2022/08/13 10:42:27;;;;;;;2.75;1.58;;;32.90;95.00;;;;;;4961324;28;20046;-51
2022/08/13 10:44:53;;;;;;;2.63;1.50;;;33.40;95.10;;;;;;4962225;28;20390;-54
2022/08/13 10:47:20;;;;;;;3.58;1.45;;;32.40;93.60;;;;;;4961870;28;20031;-56
2022/08/13 10:49:49;;;;;;;3.47;1.60;;;32.70;94.30;;;;;;4962382;28;20057;-54
2022/08/13 10:52:26;;;;;;;3.80;1.67;;;32.80;94.60;;;;;;4961519;28;20047;-56
2022/08/13 10:54:53;;;;;;;2.72;1.52;;;32.90;94.10;;;;;;4962224;28;20035;-54
2022/08/13 10:57:19;;;;;;;3.00;1.50;;;32.50;94.30;;;;;;4961904;28;20073;-53
2022/08/13 10:59:45;;;;;;;3.13;2.00;;;32.50;94.40;;;;;;4976770;28;20061;-53
2022/08/13 11:02:12;;;;;;;2.50;1.40;;;32.50;94.60;;;;;;4961552;28;20055;-53
2022/08/13 11:04:38;;;;;;;3.42;1.48;;;32.80;94.90;;;;;;4960111;28;20100;-52
2022/08/13 11:07:08;;;;;;;3.63;1.42;;;32.90;94.80;;;;;;4970135;28;20046;-53
2022/08/13 11:09:37;;;;;;;3.08;1.73;;;33.10;94.60;;;;;;4962641;28;20082;-53
2022/08/13 11:12:05;;;;;;;4.50;1.55;;;32.60;93.10;;;;;;5045163;28;20055;-53
2022/08/13 11:14:32;;;;;;;2.38;1.65;;;32.20;93.20;;;;;;4978084;28;20047;-52
2022/08/13 11:16:58;;;;;;;5.63;1.92;;;31.80;93.30;;;;;;4961543;28;20141;-52
2022/08/13 11:19:28;;;;;;;4.15;1.50;;;32.20;93.40;;;;;;4961474;28;20070;-56
2022/08/13 11:21:54;;;;;;;2.05;1.50;;;32.10;93.60;;;;;;4960782;28;20042;-54
2022/08/13 11:24:20;;;;;;;2.28;1.60;;;32.00;93.30;;;;;;4960960;28;20593;-54
2022/08/13 11:26:47;;;;;;;3.53;1.58;;;32.20;93.50;;;;;;4961434;28;20039;-53
2022/08/13 11:29:13;;;;;;;4.30;1.60;;;32.40;94.00;;;;;;4961007;28;20555;-53
2022/08/13 11:31:39;;;;;;;4.32;1.58;;;32.80;93.70;;;;;;4961607;28;20054;-51
2022/08/13 11:34:05;;;;;;;7.03;1.73;;;32.80;93.60;;;;;;4961286;28;20046;-53
2022/08/13 11:36:30;;;;;;;3.72;1.70;;;32.30;93.20;;;;;;4960735;28;20081;-52
2022/08/13 11:38:56;;;;;;;4.57;1.85;;;33.00;94.40;;;;;;4960534;28;20407;-53
2022/08/13 11:41:22;;;;;;;6.10;2.08;;;33.10;94.00;;;;;;4975743;28;20050;-53
2022/08/13 11:43:51;;;;;;;2.58;1.73;;;33.00;93.80;;;;;;4961204;28;20065;-52
2022/08/13 11:46:17;;;;;;;3.38;2.00;;;33.40;93.90;;;;;;4975613;28;20066;-52
2022/08/13 11:48:43;;;;;;;3.50;1.92;;;33.20;93.40;;;;;;4960508;28;20123;-53
2022/08/13 11:51:09;;;;;;;3.95;1.80;;;32.60;93.50;;;;;;4961075;28;20497;-53
2022/08/13 11:53:34;;;;;;;3.05;1.85;;;32.70;93.40;;;;;;4960499;28;20125;-50
2022/08/13 11:56:00;;;;;;;2.58;1.90;;;32.90;93.00;;;;;;4959988;28;20054;-51
2022/08/13 11:58:26;;;;;;;4.47;2.45;;;33.00;93.80;;;;;;4960137;28;20058;-56
2022/08/13 12:00:54;;;;;;;5.38;2.03;;;33.40;94.20;;;;;;4961007;28;20187;-52
2022/08/13 12:03:20;;;;;;;2.83;1.77;;;33.10;93.80;;;;;;4960574;28;20055;-52
2022/08/13 12:05:46;;;;;;;5.55;1.98;;;32.80;93.20;;;;;;4962002;28;20046;-52
2022/08/13 12:08:16;;;;;;;3.78;1.95;;;32.90;93.80;;;;;;4968495;28;20054;-51
2022/08/13 12:10:42;;;;;;;2.97;2.08;;;33.20;94.80;;;;;;4960203;28;20082;-53
2022/08/13 12:13:09;;;;;;;2.80;2.13;;;33.20;93.90;;;;;;4960698;28;20131;-53
2022/08/13 12:15:34;;;;;;;3.63;2.20;;;32.40;92.80;;;;;;4961047;28;20066;-54
2022/08/13 12:18:00;;;;;;;2.53;1.90;;;32.70;93.90;;;;;;4961164;28;20047;-56
2022/08/13 12:20:26;;;;;;;3.97;2.15;;;32.90;93.90;;;;;;4959987;28;20521;-54
2022/08/13 12:22:54;;;;;;;5.72;2.03;;;33.00;93.30;;;;;;4976380;28;20050;-54
2022/08/13 12:25:22;;;;;;;3.78;1.90;;;32.90;93.10;;;;;;4964319;28;20047;-55
2022/08/13 12:27:48;;;;;;;3.05;1.88;;;32.30;93.20;;;;;;4978981;28;20082;-53
2022/08/13 12:30:14;;;;;;;2.53;1.75;;;32.80;94.00;;;;;;4964012;28;20147;-54
2022/08/13 12:32:40;;;;;;;4.25;2.00;;;32.60;94.00;;;;;;4963871;28;20047;-55
2022/08/13 12:35:06;;;;;;;2.83;2.03;;;33.00;94.50;;;;;;4963117;28;20409;-53
2022/08/13 12:37:32;;;;;;;3.35;2.03;;;32.90;94.80;;;;;;4963672;28;20075;-52
2022/08/13 12:39:58;;;;;;;3.33;2.00;;;33.20;94.60;;;;;;4963962;28;20062;-51
2022/08/13 12:42:26;;;;;;;2.50;2.00;;;33.20;94.20;;;;;;4963446;28;20057;-50
2022/08/13 12:44:52;;;;;;;3.45;2.20;;;33.30;94.50;;;;;;4960661;28;20078;-54
2022/08/13 12:47:18;;;;;;;3.40;1.80;;;33.30;94.30;;;;;;4962744;28;20050;-55
2022/08/13 12:49:44;;;;;;;4.20;2.00;;;33.40;94.90;;;;;;4963624;28;20043;-54
2022/08/13 12:52:09;;;;;;;4.30;2.05;;;33.30;94.60;;;;;;4962447;28;20521;-53
2022/08/13 12:54:35;;;;;;;3.38;1.95;;;33.00;94.30;;;;;;4963150;28;20446;-54
2022/08/13 12:57:01;;;;;;;3.53;2.33;;;32.80;94.50;;;;;;4963826;28;20077;-54
2022/08/13 12:59:26;;;;;;;6.60;1.95;;;32.20;92.80;;;;;;4963639;28;20059;-51
2022/08/13 13:01:52;;;;;;;5.05;2.08;;;32.50;93.90;;;;;;4963270;28;20055;-52
2022/08/13 13:04:20;;;;;;;3.63;2.03;;;32.40;93.30;;;;;;4969716;28;20069;-57
2022/08/13 13:06:46;;;;;;;2.65;1.88;;;32.30;93.30;;;;;;4968262;28;20619;-46
2022/08/13 13:09:12;;;;;;;5.72;2.08;;;32.90;94.20;;;;;;4972960;28;20050;-47
2022/08/13 13:11:39;;;;;;;5.03;2.00;;;32.90;94.40;;;;;;4969153;28;20046;-55
2022/08/13 13:14:04;;;;;;;2.75;2.10;;;33.00;94.20;;;;;;4969772;28;20074;-62